createdAt,value
2016-12-28T00:00:38.572Z,1028.19
2016-12-28T00:01:49.320Z,1028.21
2016-12-28T00:03:00.041Z,1028.28
2016-12-28T00:04:10.763Z,1028.29
2016-12-28T00:05:21.494Z,1028.27
2016-12-28T00:06:32.207Z,1028.33
2016-12-28T00:07:42.920Z,1028.29
2016-12-28T00:08:53.640Z,1028.32
2016-12-28T00:10:04.383Z,1028.31
2016-12-28T00:11:15.111Z,1028.31
2016-12-28T00:12:25.847Z,1028.33
2016-12-28T00:13:36.578Z,1028.29
2016-12-28T00:14:47.320Z,1028.28
2016-12-28T00:15:58.062Z,1028.35
2016-12-28T00:17:08.782Z,1028.33
2016-12-28T00:18:19.512Z,1028.34
2016-12-28T00:19:30.234Z,1028.41
2016-12-28T00:20:40.980Z,1028.35
2016-12-28T00:21:51.701Z,1028.4
2016-12-28T00:23:02.422Z,1028.4
2016-12-28T00:24:13.182Z,1028.48
2016-12-28T00:25:23.877Z,1028.44
2016-12-28T00:26:34.602Z,1028.43
2016-12-28T00:27:45.323Z,1028.39
2016-12-28T00:28:56.065Z,1028.39
2016-12-28T00:30:06.794Z,1028.39
2016-12-28T00:31:17.822Z,1028.37
2016-12-28T00:32:28.544Z,1028.32
2016-12-28T00:33:39.311Z,1028.34
2016-12-28T00:34:50.055Z,1028.31
2016-12-28T00:36:00.799Z,1028.29
2016-12-28T00:37:11.523Z,1028.28
2016-12-28T00:38:22.257Z,1028.33
2016-12-28T00:39:32.991Z,1028.36
2016-12-28T00:40:43.737Z,1028.31
2016-12-28T00:41:54.458Z,1028.35
2016-12-28T00:43:05.209Z,1028.36
2016-12-28T00:44:15.950Z,1028.36
2016-12-28T00:45:26.692Z,1028.35
2016-12-28T00:46:37.730Z,1028.34
2016-12-28T00:47:48.760Z,1028.39
2016-12-28T00:48:59.483Z,1028.38
2016-12-28T00:50:10.200Z,1028.44
2016-12-28T00:51:20.927Z,1028.46
2016-12-28T00:52:31.664Z,1028.55
2016-12-28T00:53:42.364Z,1028.58
2016-12-28T00:54:53.106Z,1028.56
2016-12-28T00:56:03.812Z,1028.61
2016-12-28T00:57:14.548Z,1028.69
2016-12-28T00:58:25.276Z,1028.74
2016-12-28T00:59:36.011Z,1028.64
2016-12-28T01:00:46.732Z,1028.79
2016-12-28T01:01:57.441Z,1028.76
2016-12-28T01:03:08.485Z,1028.74
2016-12-28T01:04:19.230Z,1028.82
2016-12-28T01:05:29.952Z,1028.88
2016-12-28T01:06:40.696Z,1028.92
2016-12-28T01:07:51.433Z,1028.9
2016-12-28T01:09:02.190Z,1028.87
2016-12-28T01:10:12.908Z,1028.92
2016-12-28T01:11:23.654Z,1028.82
2016-12-28T01:12:34.404Z,1028.86
2016-12-28T01:13:45.150Z,1028.89
2016-12-28T01:14:55.892Z,1028.95
2016-12-28T01:16:06.638Z,1028.98
2016-12-28T01:17:17.388Z,1028.96
2016-12-28T01:18:28.450Z,1028.98
2016-12-28T01:19:39.169Z,1028.94
2016-12-28T01:20:49.893Z,1028.94
2016-12-28T01:22:00.643Z,1028.84
2016-12-28T01:23:11.396Z,1028.91
2016-12-28T01:24:22.102Z,1028.93
2016-12-28T01:25:32.831Z,1028.92
2016-12-28T01:26:43.568Z,1028.97
2016-12-28T01:27:54.277Z,1029.08
2016-12-28T01:29:04.998Z,1029.1
2016-12-28T01:30:15.733Z,1029.07
2016-12-28T01:31:26.456Z,1029.08
2016-12-28T01:32:37.174Z,1029.05
2016-12-28T01:33:47.899Z,1029.05
2016-12-28T01:34:58.616Z,1029.05
2016-12-28T01:36:09.340Z,1029.02
2016-12-28T01:37:20.094Z,1029.11
2016-12-28T01:38:30.816Z,1029.08
2016-12-28T01:39:41.541Z,1029.09
2016-12-28T01:40:52.274Z,1029.09
2016-12-28T01:42:03.007Z,1029.09
2016-12-28T01:43:13.771Z,1029.11
2016-12-28T01:44:24.501Z,1029.15
2016-12-28T01:45:35.238Z,1029.16
2016-12-28T01:46:45.976Z,1029.16
2016-12-28T01:47:56.683Z,1029.3
2016-12-28T01:49:07.404Z,1029.26
2016-12-28T01:50:18.152Z,1029.26
2016-12-28T01:51:28.873Z,1029.26
2016-12-28T01:52:39.610Z,1029.26
2016-12-28T01:53:50.364Z,1029.29
2016-12-28T01:55:01.405Z,1029.34
2016-12-28T01:56:12.131Z,1029.3
2016-12-28T01:57:22.865Z,1029.4
2016-12-28T01:58:33.571Z,1029.33
2016-12-28T01:59:44.308Z,1029.35
2016-12-28T02:00:55.013Z,1029.41
2016-12-28T02:02:05.748Z,1029.41
2016-12-28T02:03:16.451Z,1029.42
2016-12-28T02:04:27.195Z,1029.47
2016-12-28T02:05:37.900Z,1029.48
2016-12-28T02:06:48.643Z,1029.52
2016-12-28T02:07:59.388Z,1029.52
2016-12-28T02:09:10.102Z,1029.45
2016-12-28T02:10:20.852Z,1029.47
2016-12-28T02:11:31.578Z,1029.56
2016-12-28T02:12:42.294Z,1029.54
2016-12-28T02:13:53.040Z,1029.57
2016-12-28T02:15:03.790Z,1029.54
2016-12-28T02:16:14.535Z,1029.54
2016-12-28T02:17:25.252Z,1029.56
2016-12-28T02:18:35.978Z,1029.5
2016-12-28T02:19:46.712Z,1029.55
2016-12-28T02:20:57.440Z,1029.52
2016-12-28T02:22:08.167Z,1029.55
2016-12-28T02:23:18.913Z,1029.54
2016-12-28T02:24:29.661Z,1029.56
2016-12-28T02:25:40.399Z,1029.57
2016-12-28T02:26:51.098Z,1029.59
2016-12-28T02:28:01.820Z,1029.54
2016-12-28T02:29:12.537Z,1029.59
2016-12-28T02:30:23.252Z,1029.6
2016-12-28T02:31:34.281Z,1029.68
2016-12-28T02:32:45.024Z,1029.64
2016-12-28T02:33:55.766Z,1029.59
2016-12-28T02:35:06.484Z,1029.55
2016-12-28T02:36:17.214Z,1029.54
2016-12-28T02:37:27.928Z,1029.51
2016-12-28T02:38:38.646Z,1029.52
2016-12-28T02:39:49.374Z,1029.53
2016-12-28T02:41:00.099Z,1029.49
2016-12-28T02:42:10.844Z,1029.49
2016-12-28T02:43:21.615Z,1029.49
2016-12-28T02:44:32.352Z,1029.47
2016-12-28T02:45:43.071Z,1029.52
2016-12-28T02:46:53.777Z,1029.46
2016-12-28T02:48:04.519Z,1029.58
2016-12-28T02:49:15.236Z,1029.56
2016-12-28T02:50:25.982Z,1029.59
2016-12-28T02:51:36.683Z,1029.58
2016-12-28T02:52:47.435Z,1029.57
2016-12-28T02:53:58.177Z,1029.52
2016-12-28T02:55:08.915Z,1029.6
2016-12-28T02:56:19.660Z,1029.58
2016-12-28T02:57:30.386Z,1029.61
2016-12-28T02:58:41.128Z,1029.56
2016-12-28T02:59:51.852Z,1029.62
2016-12-28T03:01:02.582Z,1029.64
2016-12-28T03:02:13.319Z,1029.63
2016-12-28T03:03:24.056Z,1029.68
2016-12-28T03:04:34.761Z,1029.68
2016-12-28T03:05:45.461Z,1029.74
2016-12-28T03:06:56.198Z,1029.75
2016-12-28T03:08:06.948Z,1029.73
2016-12-28T03:09:17.685Z,1029.84
2016-12-28T03:10:28.419Z,1029.79
2016-12-28T03:11:39.164Z,1029.72
2016-12-28T03:12:49.908Z,1029.72
2016-12-28T03:14:00.609Z,1029.65
2016-12-28T03:15:11.347Z,1029.62
2016-12-28T03:16:22.085Z,1029.62
2016-12-28T03:17:32.815Z,1029.59
2016-12-28T03:18:43.520Z,1029.49
2016-12-28T03:19:54.260Z,1029.5
2016-12-28T03:21:05.002Z,1029.44
2016-12-28T03:22:15.719Z,1029.46
2016-12-28T03:23:26.446Z,1029.43
2016-12-28T03:24:37.193Z,1029.45
2016-12-28T03:25:47.927Z,1029.53
2016-12-28T03:26:58.655Z,1029.43
2016-12-28T03:28:09.402Z,1029.47
2016-12-28T03:29:20.122Z,1029.46
2016-12-28T03:30:30.862Z,1029.48
2016-12-28T03:31:41.564Z,1029.42
2016-12-28T03:32:52.277Z,1029.43
2016-12-28T03:34:03.006Z,1029.46
2016-12-28T03:35:13.705Z,1029.53
2016-12-28T03:36:24.426Z,1029.44
2016-12-28T03:37:35.172Z,1029.5
2016-12-28T03:38:45.894Z,1029.55
2016-12-28T03:39:56.628Z,1029.42
2016-12-28T03:41:07.652Z,1029.46
2016-12-28T03:42:18.421Z,1029.45
2016-12-28T03:43:29.179Z,1029.51
2016-12-28T03:44:39.919Z,1029.5
2016-12-28T03:45:50.940Z,1029.51
2016-12-28T03:47:01.679Z,1029.57
2016-12-28T03:48:12.400Z,1029.58
2016-12-28T03:49:23.124Z,1029.68
2016-12-28T03:50:33.859Z,1029.6
2016-12-28T03:51:44.595Z,1029.65
2016-12-28T03:52:55.320Z,1029.66
2016-12-28T03:54:06.054Z,1029.75
2016-12-28T03:55:16.812Z,1029.73
2016-12-28T03:56:27.558Z,1029.78
2016-12-28T03:57:38.296Z,1029.73
2016-12-28T03:58:49.023Z,1029.71
2016-12-28T03:59:59.745Z,1029.7
2016-12-28T04:01:10.488Z,1029.8
2016-12-28T04:02:21.202Z,1029.79
2016-12-28T04:03:31.926Z,1029.72
2016-12-28T04:04:42.655Z,1029.79
2016-12-28T04:05:53.375Z,1029.86
2016-12-28T04:07:04.121Z,1029.89
2016-12-28T04:08:14.848Z,1029.92
2016-12-28T04:09:25.585Z,1029.93
2016-12-28T04:10:36.355Z,1029.98
2016-12-28T04:11:47.123Z,1029.98
2016-12-28T04:12:57.851Z,1029.99
2016-12-28T04:14:08.569Z,1029.98
2016-12-28T04:15:19.300Z,1029.98
2016-12-28T04:16:30.039Z,1030
2016-12-28T04:17:40.774Z,1029.95
2016-12-28T04:18:51.507Z,1029.99
2016-12-28T04:20:02.252Z,1030
2016-12-28T04:21:12.973Z,1030.02
2016-12-28T04:22:23.720Z,1029.98
2016-12-28T04:23:34.457Z,1030
2016-12-28T04:24:45.207Z,1029.95
2016-12-28T04:25:55.932Z,1029.97
2016-12-28T04:27:06.670Z,1029.94
2016-12-28T04:28:17.424Z,1029.92
2016-12-28T04:29:28.145Z,1029.98
2016-12-28T04:30:39.182Z,1029.92
2016-12-28T04:31:49.885Z,1029.91
2016-12-28T04:33:00.637Z,1029.91
2016-12-28T04:34:11.379Z,1029.9
2016-12-28T04:35:22.124Z,1029.92
2016-12-28T04:36:32.820Z,1029.84
2016-12-28T04:37:43.542Z,1029.83
2016-12-28T04:38:54.290Z,1029.81
2016-12-28T04:40:04.997Z,1029.8
2016-12-28T04:41:15.726Z,1029.82
2016-12-28T04:42:26.477Z,1029.89
2016-12-28T04:43:37.193Z,1029.93
2016-12-28T04:44:47.935Z,1029.93
2016-12-28T04:45:58.663Z,1029.96
2016-12-28T04:47:09.385Z,1030
2016-12-28T04:48:20.120Z,1029.97
2016-12-28T04:49:30.851Z,1029.98
2016-12-28T04:50:41.578Z,1029.99
2016-12-28T04:51:52.318Z,1030.01
2016-12-28T04:53:03.040Z,1030.04
2016-12-28T04:54:13.786Z,1030.09
2016-12-28T04:55:24.499Z,1030.11
2016-12-28T04:56:35.249Z,1030.13
2016-12-28T04:57:45.975Z,1030.11
2016-12-28T04:58:56.720Z,1030.12
2016-12-28T05:00:07.458Z,1030.15
2016-12-28T05:01:18.212Z,1030.11
2016-12-28T05:02:28.947Z,1030.15
2016-12-28T05:03:39.682Z,1030.13
2016-12-28T05:04:50.732Z,1030.16
2016-12-28T05:06:01.459Z,1030.16
2016-12-28T05:07:12.188Z,1030.18
2016-12-28T05:08:22.909Z,1030.23
2016-12-28T05:09:33.630Z,1030.22
2016-12-28T05:10:44.350Z,1030.23
2016-12-28T05:11:55.076Z,1030.33
2016-12-28T05:13:05.796Z,1030.27
2016-12-28T05:14:16.533Z,1030.29
2016-12-28T05:15:27.267Z,1030.25
2016-12-28T05:16:38.012Z,1030.21
2016-12-28T05:17:48.729Z,1030.19
2016-12-28T05:18:59.468Z,1030.21
2016-12-28T05:20:10.189Z,1030.26
2016-12-28T05:21:20.898Z,1030.26
2016-12-28T05:22:31.639Z,1030.27
2016-12-28T05:23:42.385Z,1030.31
2016-12-28T05:24:53.108Z,1030.34
2016-12-28T05:26:03.845Z,1030.34
2016-12-28T05:27:14.570Z,1030.3
2016-12-28T05:28:25.299Z,1030.33
2016-12-28T05:29:36.035Z,1030.32
2016-12-28T05:30:46.766Z,1030.36
2016-12-28T05:31:57.512Z,1030.4
2016-12-28T05:33:08.222Z,1030.39
2016-12-28T05:34:18.951Z,1030.44
2016-12-28T05:35:29.701Z,1030.46
2016-12-28T05:36:40.444Z,1030.48
2016-12-28T05:37:51.457Z,1030.53
2016-12-28T05:39:02.164Z,1030.59
2016-12-28T05:40:12.888Z,1030.69
2016-12-28T05:41:23.628Z,1030.72
2016-12-28T05:42:34.346Z,1030.7
2016-12-28T05:43:45.055Z,1030.73
2016-12-28T05:44:55.772Z,1030.72
2016-12-28T05:46:06.788Z,1030.68
2016-12-28T05:47:17.502Z,1030.71
2016-12-28T05:48:28.209Z,1030.7
2016-12-28T05:49:38.931Z,1030.67
2016-12-28T05:50:49.663Z,1030.75
2016-12-28T05:52:00.695Z,1030.74
2016-12-28T05:53:11.408Z,1030.77
2016-12-28T05:54:22.140Z,1030.75
2016-12-28T05:55:32.863Z,1030.73
2016-12-28T05:56:43.601Z,1030.69
2016-12-28T05:57:54.333Z,1030.74
2016-12-28T05:59:05.093Z,1030.7
2016-12-28T06:00:15.850Z,1030.69
2016-12-28T06:01:26.593Z,1030.69
2016-12-28T06:02:37.313Z,1030.71
2016-12-28T06:03:48.054Z,1030.71
2016-12-28T06:04:58.783Z,1030.73
2016-12-28T06:06:09.522Z,1030.73
2016-12-28T06:07:20.247Z,1030.67
2016-12-28T06:08:30.972Z,1030.7
2016-12-28T06:09:41.743Z,1030.69
2016-12-28T06:10:52.492Z,1030.7
2016-12-28T06:12:03.207Z,1030.77
2016-12-28T06:13:14.249Z,1030.76
2016-12-28T06:14:24.952Z,1030.82
2016-12-28T06:15:35.701Z,1030.81
2016-12-28T06:16:46.417Z,1030.84
2016-12-28T06:17:57.156Z,1030.83
2016-12-28T06:19:07.865Z,1030.83
2016-12-28T06:20:18.610Z,1030.88
2016-12-28T06:21:29.348Z,1030.91
2016-12-28T06:22:40.091Z,1030.77
2016-12-28T06:23:50.849Z,1030.82
2016-12-28T06:25:01.594Z,1030.87
2016-12-28T06:26:12.337Z,1030.96
2016-12-28T06:27:23.062Z,1030.93
2016-12-28T06:28:33.780Z,1030.95
2016-12-28T06:29:44.504Z,1031.02
2016-12-28T06:30:55.239Z,1030.9
2016-12-28T06:32:05.935Z,1030.91
2016-12-28T06:33:16.667Z,1030.92
2016-12-28T06:34:27.410Z,1030.86
2016-12-28T06:35:38.149Z,1030.92
2016-12-28T06:36:48.857Z,1030.98
2016-12-28T06:37:59.595Z,1031.06
2016-12-28T06:39:10.323Z,1031.05
2016-12-28T06:40:21.045Z,1031.08
2016-12-28T06:41:31.791Z,1031.05
2016-12-28T06:42:42.540Z,1031.09
2016-12-28T06:43:53.271Z,1031.15
2016-12-28T06:45:03.979Z,1031.21
2016-12-28T06:46:14.723Z,1031.19
2016-12-28T06:47:25.462Z,1031.17
2016-12-28T06:48:36.192Z,1031.17
2016-12-28T06:49:46.958Z,1031.16
2016-12-28T06:50:57.700Z,1031.21
2016-12-28T06:52:08.399Z,1031.19
2016-12-28T06:53:19.120Z,1031.15
2016-12-28T06:54:29.837Z,1031.21
2016-12-28T06:55:40.562Z,1031.21
2016-12-28T06:56:51.577Z,1031.22
2016-12-28T06:58:02.281Z,1031.18
2016-12-28T06:59:13.005Z,1031.24
2016-12-28T07:00:23.749Z,1031.25
2016-12-28T07:01:34.468Z,1031.27
2016-12-28T07:02:45.209Z,1031.28
2016-12-28T07:03:55.927Z,1031.27
2016-12-28T07:05:06.634Z,1031.26
2016-12-28T07:06:17.376Z,1031.24
2016-12-28T07:07:28.104Z,1031.25
2016-12-28T07:08:38.824Z,1031.25
2016-12-28T07:09:49.556Z,1031.33
2016-12-28T07:11:00.289Z,1031.35
2016-12-28T07:12:11.012Z,1031.36
2016-12-28T07:13:21.736Z,1031.33
2016-12-28T07:14:32.469Z,1031.28
2016-12-28T07:15:43.198Z,1031.25
2016-12-28T07:16:53.943Z,1031.26
2016-12-28T07:18:04.666Z,1031.3
2016-12-28T07:19:15.412Z,1031.34
2016-12-28T07:20:26.153Z,1031.37
2016-12-28T07:21:36.891Z,1031.43
2016-12-28T07:22:47.622Z,1031.38
2016-12-28T07:23:58.344Z,1031.4
2016-12-28T07:25:09.091Z,1031.38
2016-12-28T07:26:19.825Z,1031.41
2016-12-28T07:27:30.832Z,1031.37
2016-12-28T07:28:41.545Z,1031.43
2016-12-28T07:29:52.262Z,1031.49
2016-12-28T07:31:02.997Z,1031.54
2016-12-28T07:32:13.739Z,1031.54
2016-12-28T07:33:24.434Z,1031.55
2016-12-28T07:34:35.175Z,1031.57
2016-12-28T07:35:45.925Z,1031.55
2016-12-28T07:36:56.646Z,1031.53
2016-12-28T07:38:07.372Z,1031.53
2016-12-28T07:39:18.089Z,1031.58
2016-12-28T07:40:28.809Z,1031.57
2016-12-28T07:41:39.531Z,1031.61
2016-12-28T07:42:50.255Z,1031.63
2016-12-28T07:44:01.001Z,1031.68
2016-12-28T07:45:12.019Z,1031.66
2016-12-28T07:46:22.739Z,1031.61
2016-12-28T07:47:33.443Z,1031.63
2016-12-28T07:48:44.183Z,1031.61
2016-12-28T07:49:54.877Z,1031.63
2016-12-28T07:51:05.923Z,1031.64
2016-12-28T07:52:16.647Z,1031.7
2016-12-28T07:53:27.370Z,1031.68
2016-12-28T07:54:38.110Z,1031.73
2016-12-28T07:55:48.832Z,1031.71
2016-12-28T07:56:59.551Z,1031.78
2016-12-28T07:58:10.297Z,1031.81
2016-12-28T07:59:21.023Z,1031.82
2016-12-28T08:00:31.764Z,1031.83
2016-12-28T08:01:42.503Z,1031.87
2016-12-28T08:02:53.235Z,1031.87
2016-12-28T08:04:03.972Z,1031.89
2016-12-28T08:05:14.672Z,1031.94
2016-12-28T08:06:25.389Z,1031.92
2016-12-28T08:07:36.139Z,1031.92
2016-12-28T08:08:46.885Z,1031.94
2016-12-28T08:09:57.609Z,1031.98
2016-12-28T08:11:08.379Z,1031.99
2016-12-28T08:12:19.089Z,1032
2016-12-28T08:13:29.785Z,1032.05
2016-12-28T08:14:40.820Z,1032.04
2016-12-28T08:15:51.545Z,1032.11
2016-12-28T08:17:02.280Z,1032.14
2016-12-28T08:18:12.998Z,1032.09
2016-12-28T08:19:23.726Z,1032.13
2016-12-28T08:20:34.444Z,1032.11
2016-12-28T08:21:45.193Z,1032.08
2016-12-28T08:22:55.911Z,1032.1
2016-12-28T08:24:06.635Z,1032.11
2016-12-28T08:25:17.372Z,1032.11
2016-12-28T08:26:28.102Z,1032.12
2016-12-28T08:27:38.847Z,1032.12
2016-12-28T08:28:49.597Z,1032.17
2016-12-28T08:30:00.316Z,1032.12
2016-12-28T08:31:11.054Z,1032.08
2016-12-28T08:32:21.746Z,1032.09
2016-12-28T08:33:32.463Z,1031.99
2016-12-28T08:34:43.188Z,1032.07
2016-12-28T08:35:53.917Z,1032.09
2016-12-28T08:37:04.661Z,1032.08
2016-12-28T08:38:15.387Z,1032.13
2016-12-28T08:39:26.099Z,1032.11
2016-12-28T08:40:36.816Z,1032.15
2016-12-28T08:41:47.540Z,1032.18
2016-12-28T08:42:58.237Z,1032.22
2016-12-28T08:44:08.957Z,1032.22
2016-12-28T08:45:19.682Z,1032.2
2016-12-28T08:46:30.399Z,1032.2
2016-12-28T08:47:41.115Z,1032.2
2016-12-28T08:48:51.840Z,1032.21
2016-12-28T08:50:02.552Z,1032.19
2016-12-28T08:51:13.261Z,1032.21
2016-12-28T08:52:23.998Z,1032.27
2016-12-28T08:53:34.728Z,1032.28
2016-12-28T08:54:45.473Z,1032.28
2016-12-28T08:55:56.215Z,1032.31
2016-12-28T08:57:06.957Z,1032.39
2016-12-28T08:58:17.677Z,1032.39
2016-12-28T08:59:28.428Z,1032.45
2016-12-28T09:00:39.148Z,1032.39
2016-12-28T09:01:49.894Z,1032.46
2016-12-28T09:03:00.617Z,1032.47
2016-12-28T09:04:11.336Z,1032.49
2016-12-28T09:05:22.080Z,1032.52
2016-12-28T09:06:32.804Z,1032.5
2016-12-28T09:07:43.849Z,1032.45
2016-12-28T09:08:54.570Z,1032.44
2016-12-28T09:10:05.324Z,1032.43
2016-12-28T09:11:16.376Z,1032.48
2016-12-28T09:12:27.129Z,1032.47
2016-12-28T09:13:37.871Z,1032.53
2016-12-28T09:14:48.623Z,1032.63
2016-12-28T09:15:59.346Z,1032.59
2016-12-28T09:17:10.063Z,1032.56
2016-12-28T09:18:20.810Z,1032.55
2016-12-28T09:19:31.535Z,1032.58
2016-12-28T09:20:42.277Z,1032.59
2016-12-28T09:21:52.991Z,1032.59
2016-12-28T09:23:03.744Z,1032.56
2016-12-28T09:24:14.487Z,1032.56
2016-12-28T09:25:25.186Z,1032.59
2016-12-28T09:26:35.922Z,1032.62
2016-12-28T09:27:46.654Z,1032.6
2016-12-28T09:28:57.401Z,1032.61
2016-12-28T09:30:08.118Z,1032.59
2016-12-28T09:31:18.862Z,1032.58
2016-12-28T09:32:29.583Z,1032.64
2016-12-28T09:33:40.308Z,1032.6
2016-12-28T09:34:51.075Z,1032.6
2016-12-28T09:36:01.822Z,1032.63
2016-12-28T09:37:12.544Z,1032.58
2016-12-28T09:38:23.283Z,1032.64
2016-12-28T09:39:34.011Z,1032.61
2016-12-28T09:40:44.772Z,1032.6
2016-12-28T09:41:55.479Z,1032.57
2016-12-28T09:43:06.224Z,1032.6
2016-12-28T09:44:16.970Z,1032.55
2016-12-28T09:45:27.712Z,1032.54
2016-12-28T09:46:38.432Z,1032.54
2016-12-28T09:47:49.157Z,1032.59
2016-12-28T09:48:59.903Z,1032.54
2016-12-28T09:50:10.637Z,1032.59
2016-12-28T09:51:21.391Z,1032.61
2016-12-28T09:52:32.115Z,1032.63
2016-12-28T09:53:42.858Z,1032.66
2016-12-28T09:54:53.581Z,1032.63
2016-12-28T09:56:04.300Z,1032.64
2016-12-28T09:57:15.021Z,1032.7
2016-12-28T09:58:25.746Z,1032.68
2016-12-28T09:59:36.466Z,1032.69
2016-12-28T10:00:47.212Z,1032.68
2016-12-28T10:01:57.958Z,1032.69
2016-12-28T10:03:08.726Z,1032.74
2016-12-28T10:04:19.472Z,1032.79
2016-12-28T10:05:30.239Z,1032.74
2016-12-28T10:06:40.946Z,1032.77
2016-12-28T10:07:51.663Z,1032.73
2016-12-28T10:09:02.409Z,1032.76
2016-12-28T10:10:13.148Z,1032.75
2016-12-28T10:11:23.898Z,1032.71
2016-12-28T10:12:34.623Z,1032.79
2016-12-28T10:13:45.369Z,1032.81
2016-12-28T10:14:56.111Z,1032.78
2016-12-28T10:16:07.150Z,1032.86
2016-12-28T10:17:17.887Z,1032.87
2016-12-28T10:18:28.599Z,1032.84
2016-12-28T10:19:39.348Z,1032.88
2016-12-28T10:20:50.071Z,1032.89
2016-12-28T10:22:00.805Z,1032.9
2016-12-28T10:23:11.537Z,1032.89
2016-12-28T10:24:22.284Z,1032.84
2016-12-28T10:25:33.025Z,1032.94
2016-12-28T10:26:43.750Z,1032.88
2016-12-28T10:27:54.475Z,1032.88
2016-12-28T10:29:05.218Z,1032.93
2016-12-28T10:30:15.994Z,1032.86
2016-12-28T10:31:26.731Z,1032.89
2016-12-28T10:32:37.452Z,1032.9
2016-12-28T10:33:48.198Z,1032.9
2016-12-28T10:34:58.922Z,1032.89
2016-12-28T10:36:09.667Z,1032.86
2016-12-28T10:37:20.432Z,1032.91
2016-12-28T10:38:31.157Z,1032.89
2016-12-28T10:39:41.858Z,1032.8
2016-12-28T10:40:52.603Z,1032.86
2016-12-28T10:42:03.349Z,1032.84
2016-12-28T10:43:14.070Z,1032.89
2016-12-28T10:44:24.787Z,1032.92
2016-12-28T10:45:35.511Z,1032.89
2016-12-28T10:46:46.232Z,1032.86
2016-12-28T10:47:56.958Z,1032.9
2016-12-28T10:49:07.699Z,1032.87
2016-12-28T10:50:18.418Z,1032.88
2016-12-28T10:51:29.118Z,1032.92
2016-12-28T10:52:39.835Z,1032.89
2016-12-28T10:53:50.560Z,1032.81
2016-12-28T10:55:01.305Z,1032.88
2016-12-28T10:56:12.053Z,1032.9
2016-12-28T10:57:22.795Z,1032.88
2016-12-28T10:58:33.543Z,1032.8
2016-12-28T10:59:44.278Z,1032.84
2016-12-28T11:00:54.985Z,1032.82
2016-12-28T11:02:05.729Z,1032.78
2016-12-28T11:03:16.454Z,1032.77
2016-12-28T11:04:27.200Z,1032.81
2016-12-28T11:05:37.917Z,1032.83
2016-12-28T11:06:48.640Z,1032.79
2016-12-28T11:07:59.359Z,1032.74
2016-12-28T11:09:10.073Z,1032.79
2016-12-28T11:10:20.804Z,1032.74
2016-12-28T11:11:31.855Z,1032.75
2016-12-28T11:12:42.597Z,1032.68
2016-12-28T11:13:53.320Z,1032.72
2016-12-28T11:15:04.364Z,1032.67
2016-12-28T11:16:15.082Z,1032.69
2016-12-28T11:17:25.802Z,1032.7
2016-12-28T11:18:36.574Z,1032.73
2016-12-28T11:19:47.320Z,1032.67
2016-12-28T11:20:58.041Z,1032.68
2016-12-28T11:22:08.762Z,1032.69
2016-12-28T11:23:19.459Z,1032.71
2016-12-28T11:24:30.183Z,1032.73
2016-12-28T11:25:40.906Z,1032.78
2016-12-28T11:26:51.629Z,1032.81
2016-12-28T11:28:02.370Z,1032.85
2016-12-28T11:29:13.091Z,1032.75
2016-12-28T11:30:23.833Z,1032.81
2016-12-28T11:31:34.563Z,1032.75
2016-12-28T11:32:45.306Z,1032.74
2016-12-28T11:33:56.052Z,1032.76
2016-12-28T11:35:06.774Z,1032.76
2016-12-28T11:36:17.500Z,1032.73
2016-12-28T11:37:28.209Z,1032.73
2016-12-28T11:38:38.940Z,1032.8
2016-12-28T11:39:49.684Z,1032.78
2016-12-28T11:41:00.410Z,1032.84
2016-12-28T11:42:11.156Z,1032.79
2016-12-28T11:43:21.902Z,1032.78
2016-12-28T11:44:32.649Z,1032.81
2016-12-28T11:45:43.391Z,1032.81
2016-12-28T11:46:54.119Z,1032.85
2016-12-28T11:48:04.839Z,1032.88
2016-12-28T11:49:15.585Z,1032.78
2016-12-28T11:50:26.327Z,1032.8
2016-12-28T11:51:37.073Z,1032.77
2016-12-28T11:52:47.805Z,1032.74
2016-12-28T11:53:58.518Z,1032.75
2016-12-28T11:55:09.265Z,1032.71
2016-12-28T11:56:20.002Z,1032.67
2016-12-28T11:57:30.713Z,1032.75
2016-12-28T11:58:41.455Z,1032.75
2016-12-28T11:59:52.201Z,1032.68
2016-12-28T12:01:03.343Z,1032.75
2016-12-28T12:02:14.118Z,1032.72
2016-12-28T12:03:24.864Z,1032.7
2016-12-28T12:04:35.611Z,1032.71
2016-12-28T12:05:46.358Z,1032.69
2016-12-28T12:06:57.096Z,1032.73
2016-12-28T12:08:07.821Z,1032.71
2016-12-28T12:09:18.517Z,1032.71
2016-12-28T12:10:29.242Z,1032.73
2016-12-28T12:11:39.977Z,1032.77
2016-12-28T12:12:50.683Z,1032.83
2016-12-28T12:14:01.406Z,1032.81
2016-12-28T12:15:12.141Z,1032.81
2016-12-28T12:16:22.849Z,1032.83
2016-12-28T12:17:33.616Z,1032.79
2016-12-28T12:18:44.338Z,1032.76
2016-12-28T12:19:55.076Z,1032.81
2016-12-28T12:21:05.826Z,1032.87
2016-12-28T12:22:16.573Z,1032.71
2016-12-28T12:23:27.297Z,1032.68
2016-12-28T12:24:37.993Z,1032.61
2016-12-28T12:25:48.717Z,1032.64
2016-12-28T12:26:59.465Z,1032.63
2016-12-28T12:28:10.181Z,1032.58
2016-12-28T12:29:20.903Z,1032.55
2016-12-28T12:30:31.629Z,1032.52
2016-12-28T12:31:42.371Z,1032.57
2016-12-28T12:32:53.092Z,1032.53
2016-12-28T12:34:03.816Z,1032.55
2016-12-28T12:35:14.559Z,1032.63
2016-12-28T12:36:25.301Z,1032.66
2016-12-28T12:37:36.032Z,1032.69
2016-12-28T12:38:46.773Z,1032.71
2016-12-28T12:39:57.523Z,1032.75
2016-12-28T12:41:08.243Z,1032.68
2016-12-28T12:42:18.962Z,1032.8
2016-12-28T12:43:29.683Z,1032.75
2016-12-28T12:44:40.391Z,1032.76
2016-12-28T12:45:51.119Z,1032.77
2016-12-28T12:47:01.826Z,1032.81
2016-12-28T12:48:12.543Z,1032.8
2016-12-28T12:49:23.281Z,1032.84
2016-12-28T12:50:34.014Z,1032.78
2016-12-28T12:51:44.731Z,1032.74
2016-12-28T12:52:55.481Z,1032.74
2016-12-28T12:54:06.199Z,1032.67
2016-12-28T12:55:16.948Z,1032.57
2016-12-28T12:56:27.668Z,1032.58
2016-12-28T12:57:38.384Z,1032.63
2016-12-28T12:58:49.110Z,1032.61
2016-12-28T12:59:59.855Z,1032.58
2016-12-28T13:01:10.593Z,1032.6
2016-12-28T13:02:21.327Z,1032.61
2016-12-28T13:03:32.072Z,1032.67
2016-12-28T13:04:42.795Z,1032.69
2016-12-28T13:05:53.512Z,1032.71
2016-12-28T13:07:04.278Z,1032.71
2016-12-28T13:08:15.021Z,1032.72
2016-12-28T13:09:25.747Z,1032.77
2016-12-28T13:10:36.471Z,1032.75
2016-12-28T13:11:47.236Z,1032.81
2016-12-28T13:12:57.967Z,1032.86
2016-12-28T13:14:08.733Z,1032.9
2016-12-28T13:15:19.459Z,1032.9
2016-12-28T13:16:30.204Z,1032.98
2016-12-28T13:17:40.921Z,1032.92
2016-12-28T13:18:51.669Z,1032.92
2016-12-28T13:20:02.440Z,1032.93
2016-12-28T13:21:13.159Z,1032.93
2016-12-28T13:22:23.907Z,1032.93
2016-12-28T13:23:34.629Z,1032.89
2016-12-28T13:24:45.376Z,1032.92
2016-12-28T13:25:56.118Z,1032.95
2016-12-28T13:27:06.857Z,1032.96
2016-12-28T13:28:17.581Z,1032.95
2016-12-28T13:29:28.310Z,1032.99
2016-12-28T13:30:39.032Z,1033.01
2016-12-28T13:31:49.765Z,1033.02
2016-12-28T13:33:00.469Z,1033.06
2016-12-28T13:34:11.191Z,1033.07
2016-12-28T13:35:21.886Z,1033.08
2016-12-28T13:36:32.637Z,1033.05
2016-12-28T13:37:43.382Z,1033.03
2016-12-28T13:38:54.124Z,1033.03
2016-12-28T13:40:04.872Z,1033.09
2016-12-28T13:41:15.621Z,1033.07
2016-12-28T13:42:26.368Z,1033.11
2016-12-28T13:43:37.086Z,1033.15
2016-12-28T13:44:47.836Z,1033.13
2016-12-28T13:45:58.554Z,1033.16
2016-12-28T13:47:09.299Z,1033.15
2016-12-28T13:48:20.046Z,1033.17
2016-12-28T13:49:30.772Z,1033.18
2016-12-28T13:50:41.858Z,1033.17
2016-12-28T13:51:52.582Z,1033.17
2016-12-28T13:53:03.304Z,1033.15
2016-12-28T13:54:14.051Z,1033.21
2016-12-28T13:55:24.796Z,1033.15
2016-12-28T13:56:35.517Z,1033.14
2016-12-28T13:57:46.261Z,1033.13
2016-12-28T13:58:56.980Z,1033.16
2016-12-28T14:00:07.710Z,1033.18
2016-12-28T14:01:18.471Z,1033.2
2016-12-28T14:02:29.199Z,1033.25
2016-12-28T14:03:39.936Z,1033.25
2016-12-28T14:04:50.664Z,1033.29
2016-12-28T14:06:01.431Z,1033.22
2016-12-28T14:07:12.158Z,1033.23
2016-12-28T14:08:22.898Z,1033.2
2016-12-28T14:09:33.630Z,1033.25
2016-12-28T14:10:44.368Z,1033.23
2016-12-28T14:11:55.111Z,1033.21
2016-12-28T14:13:05.857Z,1033.14
2016-12-28T14:14:16.581Z,1033.18
2016-12-28T14:15:27.301Z,1033.17
2016-12-28T14:16:38.024Z,1033.15
2016-12-28T14:17:48.761Z,1033.2
2016-12-28T14:18:59.487Z,1033.18